Pagina principală
METAR-TAF:

METAR-TAF

Aeroporturi :

Hastings Municipal Airport

Hastings, Nebraska, Statele Unite ale Americii

Latitudine: 40-36-02N, longitudine: 098-25-33W, elevație: 595 m

Observații meteo curente

Raportul a fost făcut în urmă cu 1 oră și 3 de minute, la 22:53 UTC
Vânt 11 kt de la Nord
Temperatură 9°C
Umiditate 34%
Presiune 1025 hPa
Vizibilitate: 16.1 km
Total acoperit la o înălțime de 7500 picior

METAR: KHSI 192253Z AUTO 35011KT 10SM OVC075 09/M06 A3028 RMK AO2 SLP264 T00941056

Ora: 18:56 (23:56 UTC)


TAF: lipsă

Observații și prognoze meteo pentru peste 4.000 de aeroporturi (rapoarte METAR și TAF).

Stațiile disponibile sunt reprezentate pe hartă prin puncte galbene și roșii.

Țineți indicatorul mouse-ului pe punctul dorit pentru a vedea denumirea stației.

Apoi, faceți clic pentru a vedea observațiile și prognozele meteorologice.

Pentru a schimba harta: Pentru mărire, faceți clic pe butoanele verzi cu cruce neagră; pentru micșorare, pe butonul verde cu o liniuță; pentru hărți învecinate, pe săgețile verzi.


METAR-TAF: